sensor_id;sensor_type;location;lat;lon;timestamp;P1;durP1;ratioP1;P2;durP2;ratioP2
17091;SDS011;8661;45.700;4.880;2022-08-21T00:01:10;1.07;;;0.93;;
17091;SDS011;8661;45.700;4.880;2022-08-21T00:03:48;2.67;;;1.20;;
17091;SDS011;8661;45.700;4.880;2022-08-21T00:06:15;1.30;;;1.07;;
17091;SDS011;8661;45.700;4.880;2022-08-21T00:08:42;2.60;;;1.00;;
17091;SDS011;8661;45.700;4.880;2022-08-21T00:11:09;5.47;;;1.80;;
17091;SDS011;8661;45.700;4.880;2022-08-21T00:13:36;2.80;;;1.20;;
17091;SDS011;8661;45.700;4.880;2022-08-21T00:16:05;1.53;;;1.10;;
17091;SDS011;8661;45.700;4.880;2022-08-21T00:18:32;3.03;;;1.00;;
17091;SDS011;8661;45.700;4.880;2022-08-21T00:20:59;3.00;;;1.10;;
17091;SDS011;8661;45.700;4.880;2022-08-21T00:23:26;4.30;;;1.30;;
17091;SDS011;8661;45.700;4.880;2022-08-21T00:25:53;2.57;;;1.30;;
17091;SDS011;8661;45.700;4.880;2022-08-21T00:28:20;1.17;;;1.00;;
17091;SDS011;8661;45.700;4.880;2022-08-21T00:30:48;1.47;;;1.20;;
17091;SDS011;8661;45.700;4.880;2022-08-21T00:33:15;4.93;;;1.10;;
17091;SDS011;8661;45.700;4.880;2022-08-21T00:35:43;2.50;;;1.27;;
17091;SDS011;8661;45.700;4.880;2022-08-21T00:38:10;3.67;;;1.20;;
17091;SDS011;8661;45.700;4.880;2022-08-21T00:40:38;3.60;;;1.20;;
17091;SDS011;8661;45.700;4.880;2022-08-21T00:43:07;2.43;;;0.90;;
17091;SDS011;8661;45.700;4.880;2022-08-21T00:45:36;3.47;;;1.10;;
17091;SDS011;8661;45.700;4.880;2022-08-21T00:48:05;3.60;;;1.27;;
17091;SDS011;8661;45.700;4.880;2022-08-21T00:50:33;1.67;;;1.00;;
17091;SDS011;8661;45.700;4.880;2022-08-21T00:53:03;1.27;;;0.87;;
17091;SDS011;8661;45.700;4.880;2022-08-21T00:55:33;2.33;;;1.10;;
17091;SDS011;8661;45.700;4.880;2022-08-21T00:58:02;1.20;;;0.90;;
17091;SDS011;8661;45.700;4.880;2022-08-21T01:00:34;2.03;;;1.20;;
17091;SDS011;8661;45.700;4.880;2022-08-21T01:03:06;28.53;;;1.53;;
17091;SDS011;8661;45.700;4.880;2022-08-21T01:05:35;2.93;;;1.03;;
17091;SDS011;8661;45.700;4.880;2022-08-21T01:08:03;3.17;;;1.40;;
17091;SDS011;8661;45.700;4.880;2022-08-21T01:10:31;2.50;;;1.40;;
17091;SDS011;8661;45.700;4.880;2022-08-21T01:12:58;3.80;;;1.00;;
17091;SDS011;8661;45.700;4.880;2022-08-21T01:15:26;1.90;;;1.00;;
17091;SDS011;8661;45.700;4.880;2022-08-21T01:17:57;1.47;;;1.10;;
17091;SDS011;8661;45.700;4.880;2022-08-21T01:20:25;1.47;;;1.00;;
17091;SDS011;8661;45.700;4.880;2022-08-21T01:22:54;5.10;;;1.00;;
17091;SDS011;8661;45.700;4.880;2022-08-21T01:25:21;1.50;;;1.00;;
17091;SDS011;8661;45.700;4.880;2022-08-21T01:27:48;2.13;;;1.30;;
17091;SDS011;8661;45.700;4.880;2022-08-21T01:30:17;2.10;;;0.90;;
17091;SDS011;8661;45.700;4.880;2022-08-21T01:32:46;1.70;;;0.97;;
17091;SDS011;8661;45.700;4.880;2022-08-21T01:35:16;2.03;;;1.00;;
17091;SDS011;8661;45.700;4.880;2022-08-21T01:37:45;2.37;;;1.20;;
17091;SDS011;8661;45.700;4.880;2022-08-21T01:40:15;1.60;;;1.00;;
17091;SDS011;8661;45.700;4.880;2022-08-21T01:42:43;2.87;;;1.00;;
17091;SDS011;8661;45.700;4.880;2022-08-21T01:45:10;3.07;;;1.10;;
17091;SDS011;8661;45.700;4.880;2022-08-21T01:47:38;1.93;;;1.03;;
17091;SDS011;8661;45.700;4.880;2022-08-21T01:50:07;1.20;;;0.80;;
17091;SDS011;8661;45.700;4.880;2022-08-21T01:52:36;4.67;;;1.23;;
17091;SDS011;8661;45.700;4.880;2022-08-21T01:55:03;1.80;;;1.20;;
17091;SDS011;8661;45.700;4.880;2022-08-21T01:57:33;2.27;;;0.90;;
17091;SDS011;8661;45.700;4.880;2022-08-21T02:00:00;1.60;;;0.90;;
17091;SDS011;8661;45.700;4.880;2022-08-21T02:02:27;4.47;;;1.00;;
17091;SDS011;8661;45.700;4.880;2022-08-21T02:04:54;3.50;;;1.10;;
17091;SDS011;8661;45.700;4.880;2022-08-21T02:07:21;2.70;;;1.30;;
17091;SDS011;8661;45.700;4.880;2022-08-21T02:09:48;2.03;;;1.00;;
17091;SDS011;8661;45.700;4.880;2022-08-21T02:12:15;3.67;;;1.07;;
17091;SDS011;8661;45.700;4.880;2022-08-21T02:14:43;2.67;;;1.37;;
17091;SDS011;8661;45.700;4.880;2022-08-21T02:17:10;3.23;;;1.20;;
17091;SDS011;8661;45.700;4.880;2022-08-21T02:19:37;2.20;;;1.10;;
17091;SDS011;8661;45.700;4.880;2022-08-21T02:22:04;2.30;;;1.20;;
17091;SDS011;8661;45.700;4.880;2022-08-21T02:24:31;3.97;;;1.20;;
17091;SDS011;8661;45.700;4.880;2022-08-21T02:26:58;3.10;;;1.20;;
17091;SDS011;8661;45.700;4.880;2022-08-21T02:29:25;4.17;;;1.60;;
17091;SDS011;8661;45.700;4.880;2022-08-21T02:31:53;6.03;;;1.30;;
17091;SDS011;8661;45.700;4.880;2022-08-21T02:34:20;2.70;;;1.20;;
17091;SDS011;8661;45.700;4.880;2022-08-21T02:36:47;3.00;;;1.50;;
17091;SDS011;8661;45.700;4.880;2022-08-21T02:39:14;3.17;;;1.20;;
17091;SDS011;8661;45.700;4.880;2022-08-21T02:41:41;3.37;;;1.63;;
17091;SDS011;8661;45.700;4.880;2022-08-21T02:44:08;1.63;;;1.00;;
17091;SDS011;8661;45.700;4.880;2022-08-21T02:46:35;3.17;;;1.20;;
17091;SDS011;8661;45.700;4.880;2022-08-21T02:49:03;2.43;;;1.40;;
17091;SDS011;8661;45.700;4.880;2022-08-21T02:51:30;2.13;;;1.43;;
17091;SDS011;8661;45.700;4.880;2022-08-21T02:53:57;6.57;;;1.60;;
17091;SDS011;8661;45.700;4.880;2022-08-21T02:56:24;3.17;;;1.33;;
17091;SDS011;8661;45.700;4.880;2022-08-21T02:58:51;6.60;;;1.30;;
17091;SDS011;8661;45.700;4.880;2022-08-21T03:01:18;1.90;;;1.13;;
17091;SDS011;8661;45.700;4.880;2022-08-21T03:03:46;2.80;;;1.40;;
17091;SDS011;8661;45.700;4.880;2022-08-21T03:06:17;5.53;;;1.60;;
17091;SDS011;8661;45.700;4.880;2022-08-21T03:08:46;3.73;;;1.67;;
17091;SDS011;8661;45.700;4.880;2022-08-21T03:11:13;1.87;;;1.30;;
17091;SDS011;8661;45.700;4.880;2022-08-21T03:13:41;3.80;;;1.30;;
17091;SDS011;8661;45.700;4.880;2022-08-21T03:16:08;4.43;;;1.37;;
17091;SDS011;8661;45.700;4.880;2022-08-21T03:18:35;1.50;;;1.20;;
17091;SDS011;8661;45.700;4.880;2022-08-21T03:21:02;4.43;;;1.70;;
17091;SDS011;8661;45.700;4.880;2022-08-21T03:23:31;5.53;;;1.90;;
17091;SDS011;8661;45.700;4.880;2022-08-21T03:25:58;5.77;;;1.70;;
17091;SDS011;8661;45.700;4.880;2022-08-21T03:28:25;2.53;;;1.30;;
17091;SDS011;8661;45.700;4.880;2022-08-21T03:30:53;3.27;;;1.33;;
17091;SDS011;8661;45.700;4.880;2022-08-21T03:33:20;6.20;;;1.63;;
17091;SDS011;8661;45.700;4.880;2022-08-21T03:35:49;3.87;;;1.33;;
17091;SDS011;8661;45.700;4.880;2022-08-21T03:38:21;4.20;;;1.33;;
17091;SDS011;8661;45.700;4.880;2022-08-21T03:40:49;3.63;;;1.20;;
17091;SDS011;8661;45.700;4.880;2022-08-21T03:43:16;2.90;;;1.40;;
17091;SDS011;8661;45.700;4.880;2022-08-21T03:45:43;2.67;;;1.30;;
17091;SDS011;8661;45.700;4.880;2022-08-21T03:48:10;4.37;;;1.50;;
17091;SDS011;8661;45.700;4.880;2022-08-21T03:50:38;6.03;;;1.37;;
17091;SDS011;8661;45.700;4.880;2022-08-21T03:53:08;6.60;;;1.70;;
17091;SDS011;8661;45.700;4.880;2022-08-21T03:55:35;4.93;;;1.77;;
17091;SDS011;8661;45.700;4.880;2022-08-21T03:58:04;6.47;;;2.20;;
17091;SDS011;8661;45.700;4.880;2022-08-21T04:00:31;4.33;;;2.00;;
17091;SDS011;8661;45.700;4.880;2022-08-21T04:02:58;7.50;;;1.77;;
17091;SDS011;8661;45.700;4.880;2022-08-21T04:05:25;4.57;;;1.50;;
17091;SDS011;8661;45.700;4.880;2022-08-21T04:07:56;2.73;;;1.60;;
17091;SDS011;8661;45.700;4.880;2022-08-21T04:10:24;1.90;;;1.20;;
17091;SDS011;8661;45.700;4.880;2022-08-21T04:12:52;2.43;;;1.70;;
17091;SDS011;8661;45.700;4.880;2022-08-21T04:15:22;3.67;;;1.40;;
17091;SDS011;8661;45.700;4.880;2022-08-21T04:17:50;2.17;;;1.50;;
17091;SDS011;8661;45.700;4.880;2022-08-21T04:20:17;5.10;;;1.50;;
17091;SDS011;8661;45.700;4.880;2022-08-21T04:22:45;4.20;;;1.60;;
17091;SDS011;8661;45.700;4.880;2022-08-21T04:25:12;2.63;;;1.40;;
17091;SDS011;8661;45.700;4.880;2022-08-21T04:27:40;2.33;;;1.20;;
17091;SDS011;8661;45.700;4.880;2022-08-21T04:30:08;2.27;;;1.50;;
17091;SDS011;8661;45.700;4.880;2022-08-21T04:32:37;1.77;;;1.30;;
17091;SDS011;8661;45.700;4.880;2022-08-21T04:35:09;3.17;;;1.50;;
17091;SDS011;8661;45.700;4.880;2022-08-21T04:37:37;4.33;;;1.60;;
17091;SDS011;8661;45.700;4.880;2022-08-21T04:40:04;2.73;;;1.60;;
17091;SDS011;8661;45.700;4.880;2022-08-21T04:42:39;3.23;;;1.53;;
17091;SDS011;8661;45.700;4.880;2022-08-21T04:45:08;3.37;;;1.80;;
17091;SDS011;8661;45.700;4.880;2022-08-21T04:47:37;3.53;;;1.83;;
17091;SDS011;8661;45.700;4.880;2022-08-21T04:50:04;4.40;;;1.57;;
17091;SDS011;8661;45.700;4.880;2022-08-21T04:52:31;3.60;;;1.60;;
17091;SDS011;8661;45.700;4.880;2022-08-21T04:54:58;2.03;;;1.77;;
17091;SDS011;8661;45.700;4.880;2022-08-21T04:57:27;4.13;;;1.60;;
17091;SDS011;8661;45.700;4.880;2022-08-21T04:59:53;3.83;;;1.50;;
17091;SDS011;8661;45.700;4.880;2022-08-21T05:02:21;1.70;;;1.40;;
17091;SDS011;8661;45.700;4.880;2022-08-21T05:04:50;2.40;;;1.30;;
17091;SDS011;8661;45.700;4.880;2022-08-21T05:07:19;2.37;;;1.57;;
17091;SDS011;8661;45.700;4.880;2022-08-21T05:09:49;6.60;;;1.70;;
17091;SDS011;8661;45.700;4.880;2022-08-21T05:12:17;3.43;;;1.70;;
17091;SDS011;8661;45.700;4.880;2022-08-21T05:14:44;3.60;;;1.80;;
17091;SDS011;8661;45.700;4.880;2022-08-21T05:17:12;2.97;;;1.80;;
17091;SDS011;8661;45.700;4.880;2022-08-21T05:19:39;5.90;;;2.20;;
17091;SDS011;8661;45.700;4.880;2022-08-21T05:22:08;3.93;;;1.73;;
17091;SDS011;8661;45.700;4.880;2022-08-21T05:24:35;5.90;;;1.97;;
17091;SDS011;8661;45.700;4.880;2022-08-21T05:27:03;5.13;;;2.20;;
17091;SDS011;8661;45.700;4.880;2022-08-21T05:29:32;3.83;;;1.80;;
17091;SDS011;8661;45.700;4.880;2022-08-21T05:31:59;3.00;;;2.00;;
17091;SDS011;8661;45.700;4.880;2022-08-21T05:34:26;2.87;;;1.60;;
17091;SDS011;8661;45.700;4.880;2022-08-21T05:36:53;3.83;;;1.80;;
17091;SDS011;8661;45.700;4.880;2022-08-21T05:39:21;5.80;;;2.50;;
17091;SDS011;8661;45.700;4.880;2022-08-21T05:41:48;5.97;;;2.03;;
17091;SDS011;8661;45.700;4.880;2022-08-21T05:44:15;3.47;;;2.13;;
17091;SDS011;8661;45.700;4.880;2022-08-21T05:46:42;11.13;;;2.50;;
17091;SDS011;8661;45.700;4.880;2022-08-21T05:49:10;3.20;;;1.87;;
17091;SDS011;8661;45.700;4.880;2022-08-21T05:51:38;6.67;;;2.20;;
17091;SDS011;8661;45.700;4.880;2022-08-21T05:54:06;3.90;;;2.00;;
17091;SDS011;8661;45.700;4.880;2022-08-21T05:56:34;2.47;;;1.80;;
17091;SDS011;8661;45.700;4.880;2022-08-21T05:59:01;4.33;;;1.90;;
17091;SDS011;8661;45.700;4.880;2022-08-21T06:01:28;4.03;;;1.67;;
17091;SDS011;8661;45.700;4.880;2022-08-21T06:03:55;4.60;;;2.00;;
17091;SDS011;8661;45.700;4.880;2022-08-21T06:06:21;5.80;;;1.90;;
17091;SDS011;8661;45.700;4.880;2022-08-21T06:08:48;5.47;;;1.87;;
17091;SDS011;8661;45.700;4.880;2022-08-21T06:11:15;3.13;;;1.80;;
17091;SDS011;8661;45.700;4.880;2022-08-21T06:13:43;6.37;;;1.50;;
17091;SDS011;8661;45.700;4.880;2022-08-21T06:16:11;3.77;;;1.50;;
17091;SDS011;8661;45.700;4.880;2022-08-21T06:18:40;3.87;;;1.70;;
17091;SDS011;8661;45.700;4.880;2022-08-21T06:21:07;3.40;;;1.60;;
17091;SDS011;8661;45.700;4.880;2022-08-21T06:23:36;4.63;;;1.47;;
17091;SDS011;8661;45.700;4.880;2022-08-21T06:26:04;2.73;;;1.50;;
17091;SDS011;8661;45.700;4.880;2022-08-21T06:28:32;4.20;;;1.50;;
17091;SDS011;8661;45.700;4.880;2022-08-21T06:31:01;4.97;;;1.70;;
17091;SDS011;8661;45.700;4.880;2022-08-21T06:33:35;4.57;;;1.80;;
17091;SDS011;8661;45.700;4.880;2022-08-21T06:36:02;2.57;;;1.40;;
17091;SDS011;8661;45.700;4.880;2022-08-21T06:38:29;4.30;;;1.73;;
17091;SDS011;8661;45.700;4.880;2022-08-21T06:40:56;3.67;;;1.60;;
17091;SDS011;8661;45.700;4.880;2022-08-21T06:43:23;4.97;;;1.80;;
17091;SDS011;8661;45.700;4.880;2022-08-21T06:45:51;2.83;;;1.33;;
17091;SDS011;8661;45.700;4.880;2022-08-21T06:48:19;4.03;;;1.43;;
17091;SDS011;8661;45.700;4.880;2022-08-21T06:50:46;3.03;;;1.50;;
17091;SDS011;8661;45.700;4.880;2022-08-21T06:53:14;3.73;;;1.20;;
17091;SDS011;8661;45.700;4.880;2022-08-21T06:55:43;3.10;;;1.30;;
17091;SDS011;8661;45.700;4.880;2022-08-21T06:58:11;2.30;;;1.30;;
17091;SDS011;8661;45.700;4.880;2022-08-21T07:00:38;3.37;;;1.47;;
17091;SDS011;8661;45.700;4.880;2022-08-21T07:03:06;4.03;;;1.40;;
17091;SDS011;8661;45.700;4.880;2022-08-21T07:05:35;3.20;;;1.50;;
17091;SDS011;8661;45.700;4.880;2022-08-21T07:08:02;2.30;;;1.33;;
17091;SDS011;8661;45.700;4.880;2022-08-21T07:10:29;5.27;;;1.40;;
17091;SDS011;8661;45.700;4.880;2022-08-21T07:12:56;6.03;;;2.07;;
17091;SDS011;8661;45.700;4.880;2022-08-21T07:15:22;4.37;;;1.60;;
17091;SDS011;8661;45.700;4.880;2022-08-21T07:17:49;3.77;;;1.10;;
17091;SDS011;8661;45.700;4.880;2022-08-21T07:20:16;6.40;;;1.53;;
17091;SDS011;8661;45.700;4.880;2022-08-21T07:22:44;5.90;;;1.60;;
17091;SDS011;8661;45.700;4.880;2022-08-21T07:25:11;5.97;;;1.63;;
17091;SDS011;8661;45.700;4.880;2022-08-21T07:27:38;3.97;;;1.30;;
17091;SDS011;8661;45.700;4.880;2022-08-21T07:30:06;3.93;;;1.57;;
17091;SDS011;8661;45.700;4.880;2022-08-21T07:32:36;4.43;;;1.30;;
17091;SDS011;8661;45.700;4.880;2022-08-21T07:35:03;3.63;;;1.60;;
17091;SDS011;8661;45.700;4.880;2022-08-21T07:37:30;3.43;;;1.40;;
17091;SDS011;8661;45.700;4.880;2022-08-21T07:39:59;3.50;;;1.43;;
17091;SDS011;8661;45.700;4.880;2022-08-21T07:42:25;5.07;;;1.60;;
17091;SDS011;8661;45.700;4.880;2022-08-21T07:44:54;4.15;;;1.48;;
17091;SDS011;8661;45.700;4.880;2022-08-21T07:47:21;3.67;;;1.67;;
17091;SDS011;8661;45.700;4.880;2022-08-21T07:49:48;2.70;;;1.40;;
17091;SDS011;8661;45.700;4.880;2022-08-21T07:52:14;4.00;;;1.50;;
17091;SDS011;8661;45.700;4.880;2022-08-21T07:54:41;3.83;;;1.30;;
17091;SDS011;8661;45.700;4.880;2022-08-21T07:57:10;4.23;;;1.73;;
17091;SDS011;8661;45.700;4.880;2022-08-21T07:59:36;3.33;;;1.33;;
17091;SDS011;8661;45.700;4.880;2022-08-21T08:02:03;3.23;;;1.47;;
17091;SDS011;8661;45.700;4.880;2022-08-21T08:04:30;3.87;;;1.40;;
17091;SDS011;8661;45.700;4.880;2022-08-21T08:06:57;3.13;;;1.50;;
17091;SDS011;8661;45.700;4.880;2022-08-21T08:09:24;4.90;;;2.20;;
17091;SDS011;8661;45.700;4.880;2022-08-21T08:11:51;3.57;;;1.70;;
17091;SDS011;8661;45.700;4.880;2022-08-21T08:14:19;4.53;;;1.57;;
17091;SDS011;8661;45.700;4.880;2022-08-21T08:16:46;5.20;;;1.63;;
17091;SDS011;8661;45.700;4.880;2022-08-21T08:19:13;3.00;;;1.40;;
17091;SDS011;8661;45.700;4.880;2022-08-21T08:21:40;4.87;;;1.60;;
17091;SDS011;8661;45.700;4.880;2022-08-21T08:24:07;3.57;;;1.27;;
17091;SDS011;8661;45.700;4.880;2022-08-21T08:26:34;4.60;;;1.60;;
17091;SDS011;8661;45.700;4.880;2022-08-21T08:29:00;1.97;;;1.17;;
17091;SDS011;8661;45.700;4.880;2022-08-21T08:31:29;3.77;;;1.50;;
17091;SDS011;8661;45.700;4.880;2022-08-21T08:33:56;5.83;;;1.73;;
17091;SDS011;8661;45.700;4.880;2022-08-21T08:36:30;3.77;;;1.60;;
17091;SDS011;8661;45.700;4.880;2022-08-21T08:38:59;5.63;;;1.43;;
17091;SDS011;8661;45.700;4.880;2022-08-21T08:41:26;3.37;;;1.47;;
17091;SDS011;8661;45.700;4.880;2022-08-21T08:43:56;3.00;;;1.53;;
17091;SDS011;8661;45.700;4.880;2022-08-21T08:46:28;3.40;;;1.37;;
17091;SDS011;8661;45.700;4.880;2022-08-21T08:49:02;2.53;;;1.23;;
17091;SDS011;8661;45.700;4.880;2022-08-21T08:51:35;4.23;;;1.53;;
17091;SDS011;8661;45.700;4.880;2022-08-21T08:54:07;3.17;;;1.70;;
17091;SDS011;8661;45.700;4.880;2022-08-21T08:56:40;3.47;;;1.53;;
17091;SDS011;8661;45.700;4.880;2022-08-21T08:59:08;3.13;;;1.60;;
17091;SDS011;8661;45.700;4.880;2022-08-21T09:01:41;3.73;;;1.40;;
17091;SDS011;8661;45.700;4.880;2022-08-21T09:04:09;3.43;;;1.60;;
17091;SDS011;8661;45.700;4.880;2022-08-21T09:06:42;6.37;;;1.50;;
17091;SDS011;8661;45.700;4.880;2022-08-21T09:09:28;5.17;;;1.50;;
17091;SDS011;8661;45.700;4.880;2022-08-21T09:12:08;2.90;;;1.50;;
17091;SDS011;8661;45.700;4.880;2022-08-21T09:14:47;4.63;;;1.57;;
17091;SDS011;8661;45.700;4.880;2022-08-21T09:17:29;4.57;;;1.80;;
17091;SDS011;8661;45.700;4.880;2022-08-21T09:20:12;4.18;;;1.25;;
17091;SDS011;8661;45.700;4.880;2022-08-21T09:22:49;2.97;;;1.38;;
17091;SDS011;8661;45.700;4.880;2022-08-21T09:25:27;3.33;;;1.45;;
17091;SDS011;8661;45.700;4.880;2022-08-21T09:27:58;3.38;;;1.40;;
17091;SDS011;8661;45.700;4.880;2022-08-21T09:30:26;3.63;;;1.55;;
17091;SDS011;8661;45.700;4.880;2022-08-21T09:32:55;5.20;;;1.60;;
17091;SDS011;8661;45.700;4.880;2022-08-21T09:35:23;3.25;;;1.40;;
17091;SDS011;8661;45.700;4.880;2022-08-21T09:37:52;2.80;;;1.42;;
17091;SDS011;8661;45.700;4.880;2022-08-21T09:40:25;2.55;;;1.20;;
17091;SDS011;8661;45.700;4.880;2022-08-21T09:43:00;3.80;;;1.20;;
17091;SDS011;8661;45.700;4.880;2022-08-21T09:45:29;3.55;;;1.27;;
17091;SDS011;8661;45.700;4.880;2022-08-21T09:48:08;3.53;;;1.40;;
17091;SDS011;8661;45.700;4.880;2022-08-21T09:50:39;4.18;;;1.30;;
17091;SDS011;8661;45.700;4.880;2022-08-21T09:53:16;2.90;;;1.38;;
17091;SDS011;8661;45.700;4.880;2022-08-21T09:55:50;3.80;;;1.75;;
17091;SDS011;8661;45.700;4.880;2022-08-21T09:58:37;8.90;;;2.38;;
17091;SDS011;8661;45.700;4.880;2022-08-21T10:01:06;11.95;;;2.88;;
17091;SDS011;8661;45.700;4.880;2022-08-21T10:03:40;7.47;;;1.33;;
17091;SDS011;8661;45.700;4.880;2022-08-21T10:06:07;3.72;;;1.17;;
17091;SDS011;8661;45.700;4.880;2022-08-21T10:08:37;2.88;;;1.33;;
17091;SDS011;8661;45.700;4.880;2022-08-21T10:11:06;4.38;;;1.30;;
17091;SDS011;8661;45.700;4.880;2022-08-21T10:13:44;5.88;;;1.58;;
17091;SDS011;8661;45.700;4.880;2022-08-21T10:16:22;2.70;;;1.05;;
17091;SDS011;8661;45.700;4.880;2022-08-21T10:19:05;5.90;;;1.23;;
17091;SDS011;8661;45.700;4.880;2022-08-21T10:21:40;2.30;;;1.13;;
17091;SDS011;8661;45.700;4.880;2022-08-21T10:24:24;2.85;;;1.17;;
17091;SDS011;8661;45.700;4.880;2022-08-21T10:27:01;1.83;;;0.80;;
17091;SDS011;8661;45.700;4.880;2022-08-21T10:29:43;3.75;;;1.10;;
17091;SDS011;8661;45.700;4.880;2022-08-21T10:32:19;9.50;;;1.90;;
17091;SDS011;8661;45.700;4.880;2022-08-21T10:35:10;6.82;;;1.60;;
17091;SDS011;8661;45.700;4.880;2022-08-21T10:37:43;2.67;;;1.10;;
17091;SDS011;8661;45.700;4.880;2022-08-21T10:40:21;4.05;;;1.30;;
17091;SDS011;8661;45.700;4.880;2022-08-21T10:42:55;2.10;;;1.17;;
17091;SDS011;8661;45.700;4.880;2022-08-21T10:45:39;2.78;;;1.40;;
17091;SDS011;8661;45.700;4.880;2022-08-21T10:48:16;4.88;;;1.98;;
17091;SDS011;8661;45.700;4.880;2022-08-21T10:50:54;3.25;;;1.77;;
17091;SDS011;8661;45.700;4.880;2022-08-21T10:53:35;3.95;;;1.42;;
17091;SDS011;8661;45.700;4.880;2022-08-21T10:56:13;5.70;;;1.30;;
17091;SDS011;8661;45.700;4.880;2022-08-21T10:58:45;6.18;;;1.70;;
17091;SDS011;8661;45.700;4.880;2022-08-21T11:01:20;3.10;;;1.50;;
17091;SDS011;8661;45.700;4.880;2022-08-21T11:03:54;3.97;;;1.50;;
17091;SDS011;8661;45.700;4.880;2022-08-21T11:06:33;3.30;;;1.20;;
17091;SDS011;8661;45.700;4.880;2022-08-21T11:09:03;4.63;;;1.17;;
17091;SDS011;8661;45.700;4.880;2022-08-21T11:11:35;2.05;;;1.20;;
17091;SDS011;8661;45.700;4.880;2022-08-21T11:14:08;3.13;;;1.10;;
17091;SDS011;8661;45.700;4.880;2022-08-21T11:16:40;2.75;;;1.20;;
17091;SDS011;8661;45.700;4.880;2022-08-21T11:19:10;5.18;;;1.95;;
17091;SDS011;8661;45.700;4.880;2022-08-21T11:21:46;3.20;;;1.50;;
17091;SDS011;8661;45.700;4.880;2022-08-21T11:24:24;1.83;;;0.85;;
17091;SDS011;8661;45.700;4.880;2022-08-21T11:26:58;1.98;;;1.10;;
17091;SDS011;8661;45.700;4.880;2022-08-21T11:29:31;3.45;;;1.15;;
17091;SDS011;8661;45.700;4.880;2022-08-21T11:32:28;2.08;;;1.08;;
17091;SDS011;8661;45.700;4.880;2022-08-21T11:35:05;5.10;;;1.33;;
17091;SDS011;8661;45.700;4.880;2022-08-21T11:37:44;1.48;;;0.93;;
17091;SDS011;8661;45.700;4.880;2022-08-21T11:40:23;5.82;;;1.40;;
17091;SDS011;8661;45.700;4.880;2022-08-21T11:43:01;3.67;;;1.40;;
17091;SDS011;8661;45.700;4.880;2022-08-21T11:45:35;4.13;;;1.50;;
17091;SDS011;8661;45.700;4.880;2022-08-21T11:48:11;3.15;;;1.15;;
17091;SDS011;8661;45.700;4.880;2022-08-21T11:50:42;2.10;;;1.38;;
17091;SDS011;8661;45.700;4.880;2022-08-21T11:53:14;3.35;;;1.20;;
17091;SDS011;8661;45.700;4.880;2022-08-21T11:55:47;2.85;;;1.45;;
17091;SDS011;8661;45.700;4.880;2022-08-21T11:58:19;2.63;;;1.00;;
17091;SDS011;8661;45.700;4.880;2022-08-21T12:00:50;1.98;;;1.10;;
17091;SDS011;8661;45.700;4.880;2022-08-21T12:03:22;3.10;;;1.00;;
17091;SDS011;8661;45.700;4.880;2022-08-21T12:05:54;2.15;;;1.17;;
17091;SDS011;8661;45.700;4.880;2022-08-21T12:08:30;2.22;;;1.20;;
17091;SDS011;8661;45.700;4.880;2022-08-21T12:11:00;2.10;;;1.23;;
17091;SDS011;8661;45.700;4.880;2022-08-21T12:13:30;2.40;;;1.40;;
17091;SDS011;8661;45.700;4.880;2022-08-21T12:18:41;1.52;;;1.20;;
17091;SDS011;8661;45.700;4.880;2022-08-21T12:21:22;2.20;;;1.15;;
17091;SDS011;8661;45.700;4.880;2022-08-21T12:24:01;4.05;;;1.48;;
17091;SDS011;8661;45.700;4.880;2022-08-21T12:26:31;3.33;;;1.30;;
17091;SDS011;8661;45.700;4.880;2022-08-21T12:29:04;2.55;;;1.33;;
17091;SDS011;8661;45.700;4.880;2022-08-21T12:31:47;2.03;;;1.10;;
17091;SDS011;8661;45.700;4.880;2022-08-21T12:34:16;2.90;;;1.27;;
17091;SDS011;8661;45.700;4.880;2022-08-21T12:36:52;4.95;;;1.67;;
17091;SDS011;8661;45.700;4.880;2022-08-21T12:39:24;2.42;;;1.15;;
17091;SDS011;8661;45.700;4.880;2022-08-21T12:41:54;6.68;;;1.35;;
17091;SDS011;8661;45.700;4.880;2022-08-21T12:44:27;2.33;;;1.20;;
17091;SDS011;8661;45.700;4.880;2022-08-21T12:47:00;3.97;;;1.42;;
17091;SDS011;8661;45.700;4.880;2022-08-21T12:49:31;4.35;;;1.25;;
17091;SDS011;8661;45.700;4.880;2022-08-21T12:52:02;2.17;;;1.35;;
17091;SDS011;8661;45.700;4.880;2022-08-21T12:54:39;3.88;;;1.70;;
17091;SDS011;8661;45.700;4.880;2022-08-21T12:57:18;5.97;;;1.50;;
17091;SDS011;8661;45.700;4.880;2022-08-21T12:59:50;2.75;;;1.60;;
17091;SDS011;8661;45.700;4.880;2022-08-21T13:02:22;3.53;;;1.38;;
17091;SDS011;8661;45.700;4.880;2022-08-21T13:04:52;3.70;;;1.70;;
17091;SDS011;8661;45.700;4.880;2022-08-21T13:07:24;3.78;;;1.55;;
17091;SDS011;8661;45.700;4.880;2022-08-21T13:09:56;2.13;;;1.20;;
17091;SDS011;8661;45.700;4.880;2022-08-21T13:12:25;3.92;;;1.80;;
17091;SDS011;8661;45.700;4.880;2022-08-21T13:14:55;3.45;;;1.70;;
17091;SDS011;8661;45.700;4.880;2022-08-21T13:17:24;3.50;;;1.67;;
17091;SDS011;8661;45.700;4.880;2022-08-21T13:19:53;5.13;;;1.65;;
17091;SDS011;8661;45.700;4.880;2022-08-21T13:22:22;2.65;;;1.80;;
17091;SDS011;8661;45.700;4.880;2022-08-21T13:24:51;4.78;;;1.80;;
17091;SDS011;8661;45.700;4.880;2022-08-21T13:27:21;6.03;;;2.20;;
17091;SDS011;8661;45.700;4.880;2022-08-21T13:30:00;6.72;;;2.05;;
17091;SDS011;8661;45.700;4.880;2022-08-21T13:32:32;4.38;;;1.75;;
17091;SDS011;8661;45.700;4.880;2022-08-21T13:35:07;3.97;;;1.90;;
17091;SDS011;8661;45.700;4.880;2022-08-21T13:37:39;4.60;;;1.73;;
17091;SDS011;8661;45.700;4.880;2022-08-21T13:40:09;4.72;;;1.98;;
17091;SDS011;8661;45.700;4.880;2022-08-21T13:42:42;2.97;;;1.85;;
17091;SDS011;8661;45.700;4.880;2022-08-21T13:45:13;3.20;;;2.00;;
17091;SDS011;8661;45.700;4.880;2022-08-21T13:47:42;3.50;;;1.60;;
17091;SDS011;8661;45.700;4.880;2022-08-21T13:50:12;4.32;;;2.03;;
17091;SDS011;8661;45.700;4.880;2022-08-21T13:52:49;3.85;;;1.70;;
17091;SDS011;8661;45.700;4.880;2022-08-21T13:55:22;9.10;;;1.95;;
17091;SDS011;8661;45.700;4.880;2022-08-21T13:58:04;4.38;;;2.10;;
17091;SDS011;8661;45.700;4.880;2022-08-21T14:00:32;4.68;;;2.05;;
17091;SDS011;8661;45.700;4.880;2022-08-21T14:03:02;5.07;;;1.90;;
17091;SDS011;8661;45.700;4.880;2022-08-21T14:05:32;4.03;;;2.10;;
17091;SDS011;8661;45.700;4.880;2022-08-21T14:08:03;4.97;;;2.30;;
17091;SDS011;8661;45.700;4.880;2022-08-21T14:10:34;5.97;;;2.00;;
17091;SDS011;8661;45.700;4.880;2022-08-21T14:13:06;5.18;;;1.98;;
17091;SDS011;8661;45.700;4.880;2022-08-21T14:15:33;3.67;;;2.08;;
17091;SDS011;8661;45.700;4.880;2022-08-21T14:18:08;6.43;;;2.30;;
17091;SDS011;8661;45.700;4.880;2022-08-21T14:20:43;4.72;;;2.22;;
17091;SDS011;8661;45.700;4.880;2022-08-21T14:23:11;3.28;;;2.25;;
17091;SDS011;8661;45.700;4.880;2022-08-21T14:25:40;2.75;;;1.90;;
17091;SDS011;8661;45.700;4.880;2022-08-21T14:28:13;6.38;;;2.33;;
17091;SDS011;8661;45.700;4.880;2022-08-21T14:30:46;4.38;;;2.42;;
17091;SDS011;8661;45.700;4.880;2022-08-21T14:33:17;4.93;;;2.53;;
17091;SDS011;8661;45.700;4.880;2022-08-21T14:35:48;4.37;;;2.20;;
17091;SDS011;8661;45.700;4.880;2022-08-21T14:38:16;6.90;;;2.28;;
17091;SDS011;8661;45.700;4.880;2022-08-21T14:40:44;4.40;;;2.13;;
17091;SDS011;8661;45.700;4.880;2022-08-21T14:43:17;4.23;;;2.00;;
17091;SDS011;8661;45.700;4.880;2022-08-21T14:45:44;5.53;;;2.00;;
17091;SDS011;8661;45.700;4.880;2022-08-21T14:48:12;6.53;;;2.77;;
17091;SDS011;8661;45.700;4.880;2022-08-21T14:50:39;6.07;;;2.20;;
17091;SDS011;8661;45.700;4.880;2022-08-21T14:53:06;5.57;;;2.27;;
17091;SDS011;8661;45.700;4.880;2022-08-21T14:55:35;5.73;;;2.50;;
17091;SDS011;8661;45.700;4.880;2022-08-21T14:58:18;4.70;;;2.60;;
17091;SDS011;8661;45.700;4.880;2022-08-21T15:00:47;6.50;;;2.37;;
17091;SDS011;8661;45.700;4.880;2022-08-21T15:03:15;4.47;;;2.40;;
17091;SDS011;8661;45.700;4.880;2022-08-21T15:05:42;5.73;;;2.83;;
17091;SDS011;8661;45.700;4.880;2022-08-21T15:08:08;4.23;;;2.40;;
17091;SDS011;8661;45.700;4.880;2022-08-21T15:10:36;5.33;;;2.60;;
17091;SDS011;8661;45.700;4.880;2022-08-21T15:13:03;5.97;;;2.80;;
17091;SDS011;8661;45.700;4.880;2022-08-21T15:15:32;4.83;;;2.30;;
17091;SDS011;8661;45.700;4.880;2022-08-21T15:18:04;3.97;;;2.47;;
17091;SDS011;8661;45.700;4.880;2022-08-21T15:20:31;5.87;;;2.60;;